sensor_id;sensor_type;location;lat;lon;timestamp;temperature;humidity
20081;DHT22;10200;49.232;9.222;2023-05-14T00:02:02;14.00;99.90
20081;DHT22;10200;49.232;9.222;2023-05-14T00:04:28;14.00;99.90
20081;DHT22;10200;49.232;9.222;2023-05-14T00:06:54;14.00;99.90
20081;DHT22;10200;49.232;9.222;2023-05-14T00:09:20;13.90;99.90
20081;DHT22;10200;49.232;9.222;2023-05-14T00:11:46;13.90;99.90
20081;DHT22;10200;49.232;9.222;2023-05-14T00:14:11;13.80;99.90
20081;DHT22;10200;49.232;9.222;2023-05-14T00:16:37;13.80;99.90
20081;DHT22;10200;49.232;9.222;2023-05-14T00:19:02;13.70;99.90
20081;DHT22;10200;49.232;9.222;2023-05-14T00:21:28;13.70;99.90
20081;DHT22;10200;49.232;9.222;2023-05-14T00:23:54;13.70;99.90
20081;DHT22;10200;49.232;9.222;2023-05-14T00:26:19;13.60;99.90
20081;DHT22;10200;49.232;9.222;2023-05-14T00:28:46;13.60;99.90
20081;DHT22;10200;49.232;9.222;2023-05-14T00:31:12;13.70;99.90
20081;DHT22;10200;49.232;9.222;2023-05-14T00:33:38;13.50;99.90
20081;DHT22;10200;49.232;9.222;2023-05-14T00:36:04;13.50;99.90
20081;DHT22;10200;49.232;9.222;2023-05-14T00:38:29;13.50;99.90
20081;DHT22;10200;49.232;9.222;2023-05-14T00:40:55;13.40;99.90
20081;DHT22;10200;49.232;9.222;2023-05-14T00:43:21;13.40;99.90
20081;DHT22;10200;49.232;9.222;2023-05-14T00:45:50;13.40;99.90
20081;DHT22;10200;49.232;9.222;2023-05-14T00:48:16;13.40;99.90
20081;DHT22;10200;49.232;9.222;2023-05-14T00:50:42;13.30;99.90
20081;DHT22;10200;49.232;9.222;2023-05-14T00:53:09;13.30;99.90
20081;DHT22;10200;49.232;9.222;2023-05-14T00:55:37;13.20;99.90
20081;DHT22;10200;49.232;9.222;2023-05-14T00:58:10;13.10;99.90
20081;DHT22;10200;49.232;9.222;2023-05-14T01:00:38;13.00;99.90
20081;DHT22;10200;49.232;9.222;2023-05-14T01:03:05;13.00;99.90
20081;DHT22;10200;49.232;9.222;2023-05-14T01:05:46;12.90;99.90
20081;DHT22;10200;49.232;9.222;2023-05-14T01:11:16;12.80;99.90
20081;DHT22;10200;49.232;9.222;2023-05-14T01:16:29;12.90;99.90
20081;DHT22;10200;49.232;9.222;2023-05-14T01:18:56;12.90;99.90
20081;DHT22;10200;49.232;9.222;2023-05-14T01:21:36;12.90;99.90
20081;DHT22;10200;49.232;9.222;2023-05-14T01:24:05;12.90;99.90
20081;DHT22;10200;49.232;9.222;2023-05-14T01:26:31;12.80;99.90
20081;DHT22;10200;49.232;9.222;2023-05-14T01:29:03;12.80;99.90
20081;DHT22;10200;49.232;9.222;2023-05-14T01:31:35;12.70;99.90
20081;DHT22;10200;49.232;9.222;2023-05-14T01:34:03;12.80;99.90
20081;DHT22;10200;49.232;9.222;2023-05-14T01:36:31;12.80;99.90
20081;DHT22;10200;49.232;9.222;2023-05-14T01:39:00;12.80;99.90
20081;DHT22;10200;49.232;9.222;2023-05-14T01:41:26;12.80;99.90
20081;DHT22;10200;49.232;9.222;2023-05-14T01:43:53;12.70;99.90
20081;DHT22;10200;49.232;9.222;2023-05-14T01:46:19;12.80;99.90
20081;DHT22;10200;49.232;9.222;2023-05-14T01:48:45;12.60;99.90
20081;DHT22;10200;49.232;9.222;2023-05-14T01:51:11;12.70;99.90
20081;DHT22;10200;49.232;9.222;2023-05-14T01:53:39;12.60;99.90
20081;DHT22;10200;49.232;9.222;2023-05-14T01:56:05;12.60;99.90
20081;DHT22;10200;49.232;9.222;2023-05-14T01:58:31;12.60;99.90
20081;DHT22;10200;49.232;9.222;2023-05-14T02:00:56;12.50;99.90
20081;DHT22;10200;49.232;9.222;2023-05-14T02:03:23;12.50;99.90
20081;DHT22;10200;49.232;9.222;2023-05-14T02:05:49;12.50;99.90
20081;DHT22;10200;49.232;9.222;2023-05-14T02:08:16;12.40;99.90
20081;DHT22;10200;49.232;9.222;2023-05-14T02:10:42;12.40;99.90
20081;DHT22;10200;49.232;9.222;2023-05-14T02:13:07;12.40;99.90
20081;DHT22;10200;49.232;9.222;2023-05-14T02:15:37;12.30;99.90
20081;DHT22;10200;49.232;9.222;2023-05-14T02:18:02;12.30;99.90
20081;DHT22;10200;49.232;9.222;2023-05-14T02:20:28;12.30;99.90
20081;DHT22;10200;49.232;9.222;2023-05-14T02:22:54;12.30;99.90
20081;DHT22;10200;49.232;9.222;2023-05-14T02:25:19;12.30;99.90
20081;DHT22;10200;49.232;9.222;2023-05-14T02:27:48;12.20;99.90
20081;DHT22;10200;49.232;9.222;2023-05-14T02:30:15;12.20;99.90
20081;DHT22;10200;49.232;9.222;2023-05-14T02:32:41;12.20;99.90
20081;DHT22;10200;49.232;9.222;2023-05-14T02:35:07;12.20;99.90
20081;DHT22;10200;49.232;9.222;2023-05-14T02:37:35;12.20;99.90
20081;DHT22;10200;49.232;9.222;2023-05-14T02:40:01;12.20;99.90
20081;DHT22;10200;49.232;9.222;2023-05-14T02:42:28;12.20;99.90
20081;DHT22;10200;49.232;9.222;2023-05-14T02:44:54;12.10;99.90
20081;DHT22;10200;49.232;9.222;2023-05-14T02:47:22;12.10;99.90
20081;DHT22;10200;49.232;9.222;2023-05-14T02:49:48;12.10;99.90
20081;DHT22;10200;49.232;9.222;2023-05-14T02:52:14;12.00;99.90
20081;DHT22;10200;49.232;9.222;2023-05-14T02:54:39;12.00;99.90
20081;DHT22;10200;49.232;9.222;2023-05-14T02:57:05;11.90;99.90
20081;DHT22;10200;49.232;9.222;2023-05-14T02:59:31;11.90;99.90
20081;DHT22;10200;49.232;9.222;2023-05-14T03:01:57;11.90;99.90
20081;DHT22;10200;49.232;9.222;2023-05-14T03:04:23;11.90;99.90
20081;DHT22;10200;49.232;9.222;2023-05-14T03:06:49;11.90;99.90
20081;DHT22;10200;49.232;9.222;2023-05-14T03:09:15;11.90;99.90
20081;DHT22;10200;49.232;9.222;2023-05-14T03:11:40;11.90;99.90
20081;DHT22;10200;49.232;9.222;2023-05-14T03:14:07;11.90;99.90
20081;DHT22;10200;49.232;9.222;2023-05-14T03:16:33;11.80;99.90
20081;DHT22;10200;49.232;9.222;2023-05-14T03:18:59;11.80;99.90
20081;DHT22;10200;49.232;9.222;2023-05-14T03:21:24;11.70;99.90
20081;DHT22;10200;49.232;9.222;2023-05-14T03:23:51;11.70;99.90
20081;DHT22;10200;49.232;9.222;2023-05-14T03:26:17;11.60;99.90
20081;DHT22;10200;49.232;9.222;2023-05-14T03:28:43;11.60;99.90
20081;DHT22;10200;49.232;9.222;2023-05-14T03:31:09;11.50;99.90
20081;DHT22;10200;49.232;9.222;2023-05-14T03:33:35;11.50;99.90
20081;DHT22;10200;49.232;9.222;2023-05-14T03:36:02;11.50;99.90
20081;DHT22;10200;49.232;9.222;2023-05-14T03:38:27;11.50;99.90
20081;DHT22;10200;49.232;9.222;2023-05-14T03:40:53;11.40;99.90
20081;DHT22;10200;49.232;9.222;2023-05-14T03:43:19;11.30;99.90
20081;DHT22;10200;49.232;9.222;2023-05-14T03:45:44;11.20;99.90
20081;DHT22;10200;49.232;9.222;2023-05-14T03:48:11;11.20;99.90
20081;DHT22;10200;49.232;9.222;2023-05-14T03:50:37;11.20;99.90
20081;DHT22;10200;49.232;9.222;2023-05-14T03:53:03;11.30;99.90
20081;DHT22;10200;49.232;9.222;2023-05-14T03:55:29;11.30;99.90
20081;DHT22;10200;49.232;9.222;2023-05-14T03:57:55;11.30;99.90
20081;DHT22;10200;49.232;9.222;2023-05-14T04:00:22;11.30;99.90
20081;DHT22;10200;49.232;9.222;2023-05-14T04:02:48;11.30;99.90
20081;DHT22;10200;49.232;9.222;2023-05-14T04:05:14;11.30;99.90
20081;DHT22;10200;49.232;9.222;2023-05-14T04:07:39;11.30;99.90
20081;DHT22;10200;49.232;9.222;2023-05-14T04:10:05;11.40;99.90
20081;DHT22;10200;49.232;9.222;2023-05-14T04:12:32;11.30;99.90
20081;DHT22;10200;49.232;9.222;2023-05-14T04:15:01;11.30;99.90
20081;DHT22;10200;49.232;9.222;2023-05-14T04:17:26;11.40;99.90
20081;DHT22;10200;49.232;9.222;2023-05-14T04:19:57;11.50;99.90
20081;DHT22;10200;49.232;9.222;2023-05-14T04:22:23;11.50;99.90
20081;DHT22;10200;49.232;9.222;2023-05-14T04:24:50;11.60;99.90
20081;DHT22;10200;49.232;9.222;2023-05-14T04:27:20;11.60;99.90
20081;DHT22;10200;49.232;9.222;2023-05-14T04:29:48;11.70;99.90
20081;DHT22;10200;49.232;9.222;2023-05-14T04:32:14;11.70;99.90
20081;DHT22;10200;49.232;9.222;2023-05-14T04:34:41;11.70;99.90
20081;DHT22;10200;49.232;9.222;2023-05-14T04:37:06;11.80;99.90
20081;DHT22;10200;49.232;9.222;2023-05-14T04:39:32;11.80;99.90
20081;DHT22;10200;49.232;9.222;2023-05-14T04:42:00;11.90;99.90
20081;DHT22;10200;49.232;9.222;2023-05-14T04:44:26;11.80;99.90
20081;DHT22;10200;49.232;9.222;2023-05-14T04:46:52;11.80;99.90
20081;DHT22;10200;49.232;9.222;2023-05-14T04:49:18;11.80;99.90
20081;DHT22;10200;49.232;9.222;2023-05-14T04:51:44;11.80;99.90
20081;DHT22;10200;49.232;9.222;2023-05-14T04:54:10;12.00;99.90
20081;DHT22;10200;49.232;9.222;2023-05-14T04:56:36;12.00;99.90
20081;DHT22;10200;49.232;9.222;2023-05-14T04:59:02;12.00;99.90
20081;DHT22;10200;49.232;9.222;2023-05-14T05:01:29;12.10;99.90
20081;DHT22;10200;49.232;9.222;2023-05-14T05:03:54;12.20;99.90
20081;DHT22;10200;49.232;9.222;2023-05-14T05:06:27;12.30;99.90
20081;DHT22;10200;49.232;9.222;2023-05-14T05:08:52;12.30;99.90
20081;DHT22;10200;49.232;9.222;2023-05-14T05:11:19;12.40;99.90
20081;DHT22;10200;49.232;9.222;2023-05-14T05:13:47;12.50;99.90
20081;DHT22;10200;49.232;9.222;2023-05-14T05:16:13;12.60;99.90
20081;DHT22;10200;49.232;9.222;2023-05-14T05:18:38;12.60;99.90
20081;DHT22;10200;49.232;9.222;2023-05-14T05:21:04;12.60;99.90
20081;DHT22;10200;49.232;9.222;2023-05-14T05:23:31;12.70;99.90
20081;DHT22;10200;49.232;9.222;2023-05-14T05:25:57;12.80;99.90
20081;DHT22;10200;49.232;9.222;2023-05-14T05:28:22;12.80;99.90
20081;DHT22;10200;49.232;9.222;2023-05-14T05:30:48;12.80;99.90
20081;DHT22;10200;49.232;9.222;2023-05-14T05:33:14;12.90;99.90
20081;DHT22;10200;49.232;9.222;2023-05-14T05:35:39;13.00;99.90
20081;DHT22;10200;49.232;9.222;2023-05-14T05:38:05;13.10;99.90
20081;DHT22;10200;49.232;9.222;2023-05-14T05:40:32;13.10;99.90
20081;DHT22;10200;49.232;9.222;2023-05-14T05:42:57;13.20;99.90
20081;DHT22;10200;49.232;9.222;2023-05-14T05:45:23;13.30;99.90
20081;DHT22;10200;49.232;9.222;2023-05-14T05:47:48;13.30;99.90
20081;DHT22;10200;49.232;9.222;2023-05-14T05:50:15;13.50;99.90
20081;DHT22;10200;49.232;9.222;2023-05-14T05:52:41;13.40;99.90
20081;DHT22;10200;49.232;9.222;2023-05-14T05:55:08;13.40;99.90
20081;DHT22;10200;49.232;9.222;2023-05-14T05:57:34;13.40;99.90
20081;DHT22;10200;49.232;9.222;2023-05-14T05:59:59;13.40;99.90
20081;DHT22;10200;49.232;9.222;2023-05-14T06:02:25;13.40;99.90
20081;DHT22;10200;49.232;9.222;2023-05-14T06:04:51;13.40;99.90
20081;DHT22;10200;49.232;9.222;2023-05-14T06:07:17;13.30;99.90
20081;DHT22;10200;49.232;9.222;2023-05-14T06:09:43;13.30;99.90
20081;DHT22;10200;49.232;9.222;2023-05-14T06:12:08;13.40;99.90
20081;DHT22;10200;49.232;9.222;2023-05-14T06:14:35;13.40;99.90
20081;DHT22;10200;49.232;9.222;2023-05-14T06:17:01;13.50;99.90
20081;DHT22;10200;49.232;9.222;2023-05-14T06:19:27;13.60;99.90
20081;DHT22;10200;49.232;9.222;2023-05-14T06:21:52;13.80;99.90
20081;DHT22;10200;49.232;9.222;2023-05-14T06:24:18;13.80;99.90
20081;DHT22;10200;49.232;9.222;2023-05-14T06:26:44;13.90;99.90
20081;DHT22;10200;49.232;9.222;2023-05-14T06:29:10;13.90;99.90
20081;DHT22;10200;49.232;9.222;2023-05-14T06:31:35;13.90;99.90
20081;DHT22;10200;49.232;9.222;2023-05-14T06:34:01;13.90;99.90
20081;DHT22;10200;49.232;9.222;2023-05-14T06:36:27;13.90;99.90
20081;DHT22;10200;49.232;9.222;2023-05-14T06:38:53;13.90;99.90
20081;DHT22;10200;49.232;9.222;2023-05-14T06:41:19;13.90;99.90
20081;DHT22;10200;49.232;9.222;2023-05-14T06:43:46;14.00;99.90
20081;DHT22;10200;49.232;9.222;2023-05-14T06:46:12;14.00;99.90
20081;DHT22;10200;49.232;9.222;2023-05-14T06:48:38;14.10;99.90
20081;DHT22;10200;49.232;9.222;2023-05-14T06:51:03;14.20;99.90
20081;DHT22;10200;49.232;9.222;2023-05-14T06:53:30;14.30;99.90
20081;DHT22;10200;49.232;9.222;2023-05-14T06:55:56;14.40;99.90
20081;DHT22;10200;49.232;9.222;2023-05-14T06:58:22;14.60;99.90
20081;DHT22;10200;49.232;9.222;2023-05-14T07:00:47;14.80;99.90
20081;DHT22;10200;49.232;9.222;2023-05-14T07:03:16;15.00;99.90
20081;DHT22;10200;49.232;9.222;2023-05-14T07:05:42;15.10;99.90
20081;DHT22;10200;49.232;9.222;2023-05-14T07:08:09;15.20;99.90
20081;DHT22;10200;49.232;9.222;2023-05-14T07:10:35;15.20;99.90
20081;DHT22;10200;49.232;9.222;2023-05-14T07:13:01;15.30;99.90
20081;DHT22;10200;49.232;9.222;2023-05-14T07:15:29;15.40;99.90
20081;DHT22;10200;49.232;9.222;2023-05-14T07:17:54;15.60;99.90
20081;DHT22;10200;49.232;9.222;2023-05-14T07:20:20;15.60;99.90
20081;DHT22;10200;49.232;9.222;2023-05-14T07:22:49;15.70;99.90
20081;DHT22;10200;49.232;9.222;2023-05-14T07:25:16;15.80;99.90
20081;DHT22;10200;49.232;9.222;2023-05-14T07:27:45;15.90;99.90
20081;DHT22;10200;49.232;9.222;2023-05-14T07:30:12;16.10;99.90
20081;DHT22;10200;49.232;9.222;2023-05-14T07:32:37;16.10;99.90
20081;DHT22;10200;49.232;9.222;2023-05-14T07:35:03;16.10;99.40
20081;DHT22;10200;49.232;9.222;2023-05-14T07:37:30;16.10;99.50
20081;DHT22;10200;49.232;9.222;2023-05-14T07:39:56;16.40;99.90
20081;DHT22;10200;49.232;9.222;2023-05-14T07:42:21;16.60;99.90
20081;DHT22;10200;49.232;9.222;2023-05-14T07:44:47;17.00;99.80
20081;DHT22;10200;49.232;9.222;2023-05-14T07:47:13;17.50;99.90
20081;DHT22;10200;49.232;9.222;2023-05-14T07:49:42;18.00;97.80
20081;DHT22;10200;49.232;9.222;2023-05-14T07:52:09;18.30;95.00
20081;DHT22;10200;49.232;9.222;2023-05-14T07:54:34;18.40;93.50
20081;DHT22;10200;49.232;9.222;2023-05-14T07:57:00;18.50;93.30
20081;DHT22;10200;49.232;9.222;2023-05-14T07:59:26;18.60;91.50
20081;DHT22;10200;49.232;9.222;2023-05-14T08:01:51;18.60;91.50
20081;DHT22;10200;49.232;9.222;2023-05-14T08:04:17;18.70;90.80
20081;DHT22;10200;49.232;9.222;2023-05-14T08:06:43;18.60;90.50
20081;DHT22;10200;49.232;9.222;2023-05-14T08:09:09;18.70;90.10
20081;DHT22;10200;49.232;9.222;2023-05-14T08:11:36;18.70;90.50
20081;DHT22;10200;49.232;9.222;2023-05-14T08:14:03;19.00;90.50
20081;DHT22;10200;49.232;9.222;2023-05-14T08:16:28;19.20;88.40
20081;DHT22;10200;49.232;9.222;2023-05-14T08:18:54;19.30;87.40
20081;DHT22;10200;49.232;9.222;2023-05-14T08:21:21;19.50;87.40
20081;DHT22;10200;49.232;9.222;2023-05-14T08:23:48;19.60;86.40
20081;DHT22;10200;49.232;9.222;2023-05-14T08:26:14;19.60;84.30
20081;DHT22;10200;49.232;9.222;2023-05-14T08:28:45;19.80;85.20
20081;DHT22;10200;49.232;9.222;2023-05-14T08:31:11;20.20;83.70
20081;DHT22;10200;49.232;9.222;2023-05-14T08:33:42;20.40;84.10
20081;DHT22;10200;49.232;9.222;2023-05-14T08:36:09;20.90;80.80
20081;DHT22;10200;49.232;9.222;2023-05-14T08:38:35;21.10;78.70
20081;DHT22;10200;49.232;9.222;2023-05-14T08:41:01;21.40;80.40
20081;DHT22;10200;49.232;9.222;2023-05-14T08:44:00;21.70;75.90
20081;DHT22;10200;49.232;9.222;2023-05-14T08:46:32;21.50;74.30
20081;DHT22;10200;49.232;9.222;2023-05-14T08:49:32;21.10;72.90
20081;DHT22;10200;49.232;9.222;2023-05-14T08:52:02;20.80;75.20
20081;DHT22;10200;49.232;9.222;2023-05-14T08:54:28;20.80;74.80
20081;DHT22;10200;49.232;9.222;2023-05-14T08:56:59;20.50;74.70
20081;DHT22;10200;49.232;9.222;2023-05-14T08:59:25;20.70;77.30
20081;DHT22;10200;49.232;9.222;2023-05-14T09:01:55;21.00;74.10
20081;DHT22;10200;49.232;9.222;2023-05-14T09:04:24;20.90;74.00
20081;DHT22;10200;49.232;9.222;2023-05-14T09:06:51;20.70;72.20
20081;DHT22;10200;49.232;9.222;2023-05-14T09:09:22;20.70;74.00
20081;DHT22;10200;49.232;9.222;2023-05-14T09:11:50;20.40;72.50
20081;DHT22;10200;49.232;9.222;2023-05-14T09:14:16;20.30;73.60
20081;DHT22;10200;49.232;9.222;2023-05-14T09:16:44;20.80;76.00
20081;DHT22;10200;49.232;9.222;2023-05-14T09:19:11;21.20;74.60
20081;DHT22;10200;49.232;9.222;2023-05-14T09:21:39;21.80;74.00
20081;DHT22;10200;49.232;9.222;2023-05-14T09:24:05;22.10;69.80
20081;DHT22;10200;49.232;9.222;2023-05-14T09:26:32;22.20;69.10
20081;DHT22;10200;49.232;9.222;2023-05-14T09:29:00;22.20;67.20
20081;DHT22;10200;49.232;9.222;2023-05-14T09:31:30;21.90;67.10
20081;DHT22;10200;49.232;9.222;2023-05-14T09:33:56;21.60;67.20
20081;DHT22;10200;49.232;9.222;2023-05-14T09:36:24;21.40;68.20
20081;DHT22;10200;49.232;9.222;2023-05-14T09:39:02;21.40;68.80
20081;DHT22;10200;49.232;9.222;2023-05-14T09:41:28;21.30;69.00
20081;DHT22;10200;49.232;9.222;2023-05-14T09:43:55;21.20;69.50
20081;DHT22;10200;49.232;9.222;2023-05-14T09:46:24;21.10;70.30
20081;DHT22;10200;49.232;9.222;2023-05-14T09:48:54;21.00;70.80
20081;DHT22;10200;49.232;9.222;2023-05-14T09:51:22;20.90;70.80
20081;DHT22;10200;49.232;9.222;2023-05-14T09:53:51;20.60;70.70
20081;DHT22;10200;49.232;9.222;2023-05-14T09:56:19;20.50;71.70
20081;DHT22;10200;49.232;9.222;2023-05-14T09:58:46;20.40;72.50
20081;DHT22;10200;49.232;9.222;2023-05-14T10:01:13;20.20;73.20
20081;DHT22;10200;49.232;9.222;2023-05-14T10:03:40;20.10;72.50
20081;DHT22;10200;49.232;9.222;2023-05-14T10:06:06;20.00;74.20
20081;DHT22;10200;49.232;9.222;2023-05-14T10:08:35;20.00;73.70
20081;DHT22;10200;49.232;9.222;2023-05-14T10:11:13;19.80;72.80
20081;DHT22;10200;49.232;9.222;2023-05-14T10:13:44;19.60;74.10
20081;DHT22;10200;49.232;9.222;2023-05-14T10:16:21;19.40;74.10
20081;DHT22;10200;49.232;9.222;2023-05-14T10:18:51;19.40;75.20
20081;DHT22;10200;49.232;9.222;2023-05-14T10:21:21;19.40;74.80
20081;DHT22;10200;49.232;9.222;2023-05-14T10:23:50;19.30;75.50
20081;DHT22;10200;49.232;9.222;2023-05-14T10:26:17;19.30;74.80
20081;DHT22;10200;49.232;9.222;2023-05-14T10:28:45;19.30;75.30
20081;DHT22;10200;49.232;9.222;2023-05-14T10:31:12;19.30;75.80
20081;DHT22;10200;49.232;9.222;2023-05-14T10:33:48;19.30;76.00
20081;DHT22;10200;49.232;9.222;2023-05-14T10:36:19;19.30;76.10
20081;DHT22;10200;49.232;9.222;2023-05-14T10:38:47;19.20;75.50
20081;DHT22;10200;49.232;9.222;2023-05-14T10:41:22;19.20;76.00
20081;DHT22;10200;49.232;9.222;2023-05-14T10:43:48;19.20;75.50
20081;DHT22;10200;49.232;9.222;2023-05-14T10:46:15;19.20;76.40
20081;DHT22;10200;49.232;9.222;2023-05-14T10:48:42;19.20;76.40
20081;DHT22;10200;49.232;9.222;2023-05-14T10:51:09;19.20;75.40
20081;DHT22;10200;49.232;9.222;2023-05-14T10:53:40;19.20;76.40
20081;DHT22;10200;49.232;9.222;2023-05-14T10:56:12;19.30;76.70
20081;DHT22;10200;49.232;9.222;2023-05-14T10:58:42;19.30;75.90
20081;DHT22;10200;49.232;9.222;2023-05-14T11:01:10;19.40;76.10
20081;DHT22;10200;49.232;9.222;2023-05-14T11:03:44;19.50;76.10
20081;DHT22;10200;49.232;9.222;2023-05-14T11:06:13;19.40;75.60
20081;DHT22;10200;49.232;9.222;2023-05-14T11:08:40;19.60;75.60
20081;DHT22;10200;49.232;9.222;2023-05-14T11:11:07;19.70;76.00
20081;DHT22;10200;49.232;9.222;2023-05-14T11:13:33;20.00;75.20
20081;DHT22;10200;49.232;9.222;2023-05-14T11:16:00;20.00;74.80
20081;DHT22;10200;49.232;9.222;2023-05-14T11:18:31;20.00;73.60
20081;DHT22;10200;49.232;9.222;2023-05-14T11:21:05;20.10;74.20
20081;DHT22;10200;49.232;9.222;2023-05-14T11:23:34;20.00;73.80
20081;DHT22;10200;49.232;9.222;2023-05-14T11:25:59;19.90;73.60
20081;DHT22;10200;49.232;9.222;2023-05-14T11:28:27;19.90;74.00
20081;DHT22;10200;49.232;9.222;2023-05-14T11:30:54;20.00;73.90
20081;DHT22;10200;49.232;9.222;2023-05-14T11:33:20;20.00;72.80
20081;DHT22;10200;49.232;9.222;2023-05-14T11:35:46;20.10;73.20
20081;DHT22;10200;49.232;9.222;2023-05-14T11:38:19;20.20;73.30
20081;DHT22;10200;49.232;9.222;2023-05-14T11:40:56;20.20;72.30
20081;DHT22;10200;49.232;9.222;2023-05-14T11:43:23;20.20;71.60
20081;DHT22;10200;49.232;9.222;2023-05-14T11:45:53;20.20;72.40
20081;DHT22;10200;49.232;9.222;2023-05-14T11:48:20;20.00;71.80
20081;DHT22;10200;49.232;9.222;2023-05-14T11:50:50;20.00;72.40
20081;DHT22;10200;49.232;9.222;2023-05-14T11:53:26;19.90;73.10
20081;DHT22;10200;49.232;9.222;2023-05-14T11:55:55;19.70;72.50
20081;DHT22;10200;49.232;9.222;2023-05-14T11:58:24;19.70;72.30
20081;DHT22;10200;49.232;9.222;2023-05-14T12:00:51;19.50;71.40
20081;DHT22;10200;49.232;9.222;2023-05-14T12:03:21;19.50;72.40
20081;DHT22;10200;49.232;9.222;2023-05-14T12:06:02;19.40;73.70
20081;DHT22;10200;49.232;9.222;2023-05-14T12:08:31;19.50;73.60
20081;DHT22;10200;49.232;9.222;2023-05-14T12:10:59;19.50;74.50
20081;DHT22;10200;49.232;9.222;2023-05-14T12:13:32;19.70;74.00
20081;DHT22;10200;49.232;9.222;2023-05-14T12:15:59;19.80;73.90
20081;DHT22;10200;49.232;9.222;2023-05-14T12:18:29;19.80;73.00
20081;DHT22;10200;49.232;9.222;2023-05-14T12:21:00;19.80;73.10
20081;DHT22;10200;49.232;9.222;2023-05-14T12:23:30;19.70;73.00
20081;DHT22;10200;49.232;9.222;2023-05-14T12:26:07;19.70;73.60
20081;DHT22;10200;49.232;9.222;2023-05-14T12:28:33;19.70;73.20
20081;DHT22;10200;49.232;9.222;2023-05-14T12:30:59;19.80;73.00
20081;DHT22;10200;49.232;9.222;2023-05-14T12:33:25;19.80;72.90
20081;DHT22;10200;49.232;9.222;2023-05-14T12:35:52;19.90;72.80
20081;DHT22;10200;49.232;9.222;2023-05-14T12:38:21;20.00;72.90
20081;DHT22;10200;49.232;9.222;2023-05-14T12:40:47;20.00;71.80
20081;DHT22;10200;49.232;9.222;2023-05-14T12:43:12;20.00;70.50
20081;DHT22;10200;49.232;9.222;2023-05-14T12:45:38;20.00;70.60
20081;DHT22;10200;49.232;9.222;2023-05-14T12:48:05;20.00;70.40
20081;DHT22;10200;49.232;9.222;2023-05-14T12:50:32;20.00;70.50
20081;DHT22;10200;49.232;9.222;2023-05-14T12:52:58;20.00;70.40
20081;DHT22;10200;49.232;9.222;2023-05-14T12:55:23;20.10;72.00
20081;DHT22;10200;49.232;9.222;2023-05-14T12:57:49;20.40;70.30
20081;DHT22;10200;49.232;9.222;2023-05-14T13:00:16;20.40;70.30
20081;DHT22;10200;49.232;9.222;2023-05-14T13:02:44;20.50;69.30
20081;DHT22;10200;49.232;9.222;2023-05-14T13:05:11;20.40;69.10
20081;DHT22;10200;49.232;9.222;2023-05-14T13:07:37;20.40;69.30
20081;DHT22;10200;49.232;9.222;2023-05-14T13:10:03;20.40;69.70
20081;DHT22;10200;49.232;9.222;2023-05-14T13:12:31;20.40;69.40
20081;DHT22;10200;49.232;9.222;2023-05-14T13:14:57;20.40;69.50
20081;DHT22;10200;49.232;9.222;2023-05-14T13:17:24;20.30;68.80
20081;DHT22;10200;49.232;9.222;2023-05-14T13:19:50;20.20;68.00
20081;DHT22;10200;49.232;9.222;2023-05-14T13:22:15;20.10;68.10
20081;DHT22;10200;49.232;9.222;2023-05-14T13:24:44;20.20;68.60
20081;DHT22;10200;49.232;9.222;2023-05-14T13:27:11;20.20;68.10
20081;DHT22;10200;49.232;9.222;2023-05-14T13:29:37;20.20;69.20
20081;DHT22;10200;49.232;9.222;2023-05-14T13:32:03;20.30;68.50
20081;DHT22;10200;49.232;9.222;2023-05-14T13:34:29;20.50;68.60
20081;DHT22;10200;49.232;9.222;2023-05-14T13:36:57;20.60;67.60
20081;DHT22;10200;49.232;9.222;2023-05-14T13:39:26;20.80;67.90
20081;DHT22;10200;49.232;9.222;2023-05-14T13:42:00;21.10;67.60
20081;DHT22;10200;49.232;9.222;2023-05-14T13:44:28;21.20;66.40
20081;DHT22;10200;49.232;9.222;2023-05-14T13:46:54;21.30;66.10
20081;DHT22;10200;49.232;9.222;2023-05-14T13:49:20;21.70;66.00
20081;DHT22;10200;49.232;9.222;2023-05-14T13:51:47;21.80;62.10
20081;DHT22;10200;49.232;9.222;2023-05-14T13:54:13;21.80;62.40
20081;DHT22;10200;49.232;9.222;2023-05-14T13:56:39;21.80;61.60
20081;DHT22;10200;49.232;9.222;2023-05-14T13:59:10;21.70;61.80
20081;DHT22;10200;49.232;9.222;2023-05-14T14:01:36;21.60;62.50
20081;DHT22;10200;49.232;9.222;2023-05-14T14:04:01;21.60;62.50
20081;DHT22;10200;49.232;9.222;2023-05-14T14:06:30;21.70;63.40
20081;DHT22;10200;49.232;9.222;2023-05-14T14:08:56;22.00;63.20
20081;DHT22;10200;49.232;9.222;2023-05-14T14:11:22;22.10;62.60
20081;DHT22;10200;49.232;9.222;2023-05-14T14:13:48;22.00;62.30
20081;DHT22;10200;49.232;9.222;2023-05-14T14:16:13;21.90;62.80
20081;DHT22;10200;49.232;9.222;2023-05-14T14:18:40;21.60;63.10
20081;DHT22;10200;49.232;9.222;2023-05-14T14:21:07;21.20;63.40
20081;DHT22;10200;49.232;9.222;2023-05-14T14:23:33;21.10;65.20
20081;DHT22;10200;49.232;9.222;2023-05-14T14:25:59;20.90;65.80
20081;DHT22;10200;49.232;9.222;2023-05-14T14:28:26;20.70;66.30
20081;DHT22;10200;49.232;9.222;2023-05-14T14:30:55;20.50;66.40
20081;DHT22;10200;49.232;9.222;2023-05-14T14:33:20;20.30;66.70
20081;DHT22;10200;49.232;9.222;2023-05-14T14:35:46;20.30;68.10
20081;DHT22;10200;49.232;9.222;2023-05-14T14:38:12;20.40;67.00
20081;DHT22;10200;49.232;9.222;2023-05-14T14:40:38;20.40;66.00
20081;DHT22;10200;49.232;9.222;2023-05-14T14:43:04;20.40;66.80
20081;DHT22;10200;49.232;9.222;2023-05-14T14:45:29;20.40;66.70
20081;DHT22;10200;49.232;9.222;2023-05-14T14:48:21;20.50;68.30
20081;DHT22;10200;49.232;9.222;2023-05-14T14:50:48;20.80;67.60
20081;DHT22;10200;49.232;9.222;2023-05-14T14:53:13;20.80;66.90
20081;DHT22;10200;49.232;9.222;2023-05-14T14:55:39;20.80;66.40
20081;DHT22;10200;49.232;9.222;2023-05-14T14:58:05;20.80;66.80
20081;DHT22;10200;49.232;9.222;2023-05-14T15:00:31;20.90;67.10
20081;DHT22;10200;49.232;9.222;2023-05-14T15:02:57;20.90;67.10
20081;DHT22;10200;49.232;9.222;2023-05-14T15:05:22;21.00;66.70
20081;DHT22;10200;49.232;9.222;2023-05-14T15:07:51;20.90;66.00
20081;DHT22;10200;49.232;9.222;2023-05-14T15:10:19;20.80;65.50
20081;DHT22;10200;49.232;9.222;2023-05-14T15:12:44;20.70;65.90
20081;DHT22;10200;49.232;9.222;2023-05-14T15:15:10;20.60;66.50
20081;DHT22;10200;49.232;9.222;2023-05-14T15:17:36;20.50;66.90
20081;DHT22;10200;49.232;9.222;2023-05-14T15:20:02;20.40;67.60
20081;DHT22;10200;49.232;9.222;2023-05-14T15:22:27;20.30;67.30
20081;DHT22;10200;49.232;9.222;2023-05-14T15:24:54;20.30;67.60
20081;DHT22;10200;49.232;9.222;2023-05-14T15:27:19;20.20;66.80
20081;DHT22;10200;49.232;9.222;2023-05-14T15:29:45;20.10;67.00
20081;DHT22;10200;49.232;9.222;2023-05-14T15:32:11;20.10;67.90
20081;DHT22;10200;49.232;9.222;2023-05-14T15:34:36;20.10;68.50
20081;DHT22;10200;49.232;9.222;2023-05-14T15:37:02;20.20;68.00